Time;durP1;ratioP1;P1;durP2;ratioP2;P2;SDS_P1;SDS_P2;PMS_P1;PMS_P2;Temp;Humidity;BMP_temperature;BMP_pressure;BME280_temperature;BME280_humidity;BME280_pressure;Samples;Min_cycle;Max_cycle;Signal;HPM_P1;HPM_P2
2023/06/25 00:01:05;;;;;;;21.20;14.40;;;18.60;20.00;;;;;;5039698;28;20502;-68
2023/06/25 00:03:32;;;;;;;19.40;14.60;;;18.60;19.80;;;;;;5041375;28;20482;-68
2023/06/25 00:05:58;;;;;;;14.77;12.10;;;18.50;20.00;;;;;;5042477;28;20981;-67
2023/06/25 00:08:25;;;;;;;15.40;10.93;;;18.50;20.00;;;;;;5046515;28;20466;-68
2023/06/25 00:10:52;;;;;;;17.33;12.90;;;18.50;19.90;;;;;;5041697;28;20486;-68
2023/06/25 00:13:19;;;;;;;15.70;12.33;;;18.50;20.00;;;;;;5042053;28;20485;-68
2023/06/25 00:15:46;;;;;;;14.10;11.77;;;18.40;20.10;;;;;;5042048;28;20462;-68
2023/06/25 00:18:14;;;;;;;15.40;13.10;;;18.40;20.00;;;;;;5046537;28;20469;-69
2023/06/25 00:20:40;;;;;;;17.10;12.43;;;18.40;20.10;;;;;;5041502;28;20468;-68
2023/06/25 00:23:07;;;;;;;16.43;12.63;;;18.30;20.90;;;;;;5037049;28;20493;-69
2023/06/25 00:25:34;;;;;;;13.70;10.87;;;18.30;20.70;;;;;;5039160;28;20468;-68
2023/06/25 00:28:01;;;;;;;15.37;11.27;;;18.30;21.30;;;;;;5038236;28;20992;-68
2023/06/25 00:30:28;;;;;;;13.87;10.90;;;18.20;21.60;;;;;;5040551;28;20870;-68
2023/06/25 00:32:55;;;;;;;17.10;12.43;;;18.20;21.70;;;;;;5037166;28;20487;-66
2023/06/25 00:35:29;;;;;;;15.17;12.10;;;18.20;21.70;;;;;;5042228;28;21237;-68
2023/06/25 00:37:57;;;;;;;16.93;13.00;;;18.20;21.90;;;;;;5042692;28;20467;-68
2023/06/25 00:40:24;;;;;;;15.07;12.20;;;18.10;22.00;;;;;;5044416;28;20484;-68
2023/06/25 00:42:56;;;;;;;15.40;11.60;;;18.10;22.50;;;;;;5055563;28;20474;-68
2023/06/25 00:45:25;;;;;;;14.90;11.80;;;18.10;22.30;;;;;;5062888;28;20513;-68
2023/06/25 00:47:52;;;;;;;18.23;12.60;;;18.10;22.20;;;;;;5050504;28;20519;-69
2023/06/25 00:50:21;;;;;;;16.70;12.00;;;18.10;22.40;;;;;;5038783;28;20970;-69
2023/06/25 00:52:50;;;;;;;14.23;11.13;;;18.00;22.30;;;;;;5042363;28;20482;-69
2023/06/25 00:55:17;;;;;;;14.00;11.37;;;18.00;22.20;;;;;;5042847;28;20462;-68
2023/06/25 00:57:44;;;;;;;13.07;11.20;;;17.90;22.20;;;;;;5040004;28;20466;-69
2023/06/25 01:00:14;;;;;;;12.40;10.13;;;17.90;22.80;;;;;;5044060;28;20971;-68
2023/06/25 01:02:46;;;;;;;15.00;11.60;;;17.90;22.30;;;;;;5043799;28;20466;-68
2023/06/25 01:05:18;;;;;;;13.77;11.40;;;17.90;22.20;;;;;;5039207;28;20554;-68
2023/06/25 01:07:46;;;;;;;15.60;10.87;;;17.80;22.10;;;;;;5034807;28;20462;-67
2023/06/25 01:10:15;;;;;;;12.37;10.10;;;17.80;22.40;;;;;;5034500;28;20478;-68
2023/06/25 01:12:43;;;;;;;13.20;10.80;;;17.80;22.70;;;;;;5042171;28;20996;-68
2023/06/25 01:15:10;;;;;;;14.80;10.73;;;17.70;22.90;;;;;;5043553;28;20506;-67
2023/06/25 01:17:37;;;;;;;16.13;10.77;;;17.70;23.00;;;;;;5041677;28;20473;-68
2023/06/25 01:20:05;;;;;;;14.47;11.13;;;17.60;23.30;;;;;;5040331;28;20470;-68
2023/06/25 01:22:34;;;;;;;14.63;11.40;;;17.60;23.00;;;;;;5046187;28;20560;-68
2023/06/25 01:25:01;;;;;;;15.90;11.83;;;17.60;23.30;;;;;;5039665;28;20833;-68
2023/06/25 01:27:28;;;;;;;14.33;11.33;;;17.60;23.00;;;;;;5039982;28;20825;-67
2023/06/25 01:29:55;;;;;;;15.53;11.70;;;17.50;23.20;;;;;;5037733;28;20454;-68
2023/06/25 01:32:23;;;;;;;13.83;11.07;;;17.50;23.40;;;;;;5063187;28;20479;-68
2023/06/25 01:34:50;;;;;;;14.67;11.67;;;17.50;23.20;;;;;;5068556;28;20461;-68
2023/06/25 01:37:17;;;;;;;16.53;11.87;;;17.50;23.30;;;;;;5062786;28;20523;-68
2023/06/25 01:39:48;;;;;;;13.73;10.90;;;17.40;23.80;;;;;;5060894;28;20457;-69
2023/06/25 01:42:15;;;;;;;15.40;11.60;;;17.40;23.80;;;;;;5064241;28;20486;-68
2023/06/25 01:44:42;;;;;;;13.37;10.33;;;17.40;23.90;;;;;;5067911;28;20504;-68
2023/06/25 01:47:08;;;;;;;13.93;10.30;;;17.30;24.30;;;;;;5065381;28;20454;-68
2023/06/25 01:49:35;;;;;;;16.43;10.70;;;17.30;24.30;;;;;;5061975;28;20457;-68
2023/06/25 01:52:02;;;;;;;15.97;12.33;;;17.30;24.30;;;;;;5066780;28;20510;-68
2023/06/25 01:54:29;;;;;;;14.30;11.13;;;17.30;24.60;;;;;;5062915;28;20484;-69
2023/06/25 01:56:57;;;;;;;16.67;12.37;;;17.30;24.60;;;;;;5057085;28;20449;-68
2023/06/25 01:59:24;;;;;;;18.37;12.97;;;17.30;24.40;;;;;;5061840;28;20462;-68
2023/06/25 02:01:51;;;;;;;14.50;11.60;;;17.30;24.40;;;;;;5065649;28;21048;-68
2023/06/25 02:04:18;;;;;;;13.53;10.57;;;17.20;24.60;;;;;;5100078;22;20493;-81
2023/06/25 02:06:46;;;;;;;14.40;11.60;;;17.20;24.70;;;;;;5039938;28;20492;-81
2023/06/25 02:09:14;;;;;;;12.93;9.83;;;17.10;24.70;;;;;;5036288;28;20494;-80
2023/06/25 02:11:41;;;;;;;14.43;11.90;;;17.10;24.80;;;;;;5038399;28;20453;-82
2023/06/25 02:14:10;;;;;;;13.20;10.70;;;17.10;24.70;;;;;;5038953;28;20604;-82
2023/06/25 02:16:36;;;;;;;14.83;11.13;;;17.10;24.40;;;;;;5046822;28;20470;-81
2023/06/25 02:19:04;;;;;;;13.50;10.03;;;17.10;24.60;;;;;;5048070;28;20514;-79
2023/06/25 02:21:31;;;;;;;15.57;10.90;;;17.10;24.40;;;;;;5048802;28;20477;-80
2023/06/25 02:23:58;;;;;;;15.50;11.70;;;17.10;24.40;;;;;;5049499;28;20454;-80
2023/06/25 02:26:25;;;;;;;14.17;11.40;;;17.00;24.80;;;;;;5044625;28;20453;-81
2023/06/25 02:28:52;;;;;;;14.73;11.40;;;17.00;24.90;;;;;;5047894;28;20478;-81
2023/06/25 02:31:20;;;;;;;15.20;10.70;;;17.00;24.80;;;;;;5056621;28;20483;-81
2023/06/25 02:33:47;;;;;;;17.03;12.17;;;17.00;24.70;;;;;;5066023;28;20481;-81
2023/06/25 02:36:15;;;;;;;16.50;10.90;;;16.90;24.90;;;;;;5059230;28;20473;-80
2023/06/25 02:38:42;;;;;;;15.53;11.27;;;16.90;24.60;;;;;;5064149;28;20912;-81
2023/06/25 02:41:09;;;;;;;15.90;10.70;;;16.90;24.70;;;;;;5049756;28;20989;-81
2023/06/25 02:43:36;;;;;;;18.20;11.07;;;16.90;25.10;;;;;;5055148;28;20450;-79
2023/06/25 02:46:03;;;;;;;14.30;10.33;;;16.90;25.20;;;;;;5060204;28;20470;-80
2023/06/25 02:48:31;;;;;;;17.70;12.60;;;16.80;25.10;;;;;;5066887;28;20518;-81
2023/06/25 02:50:58;;;;;;;14.47;10.70;;;16.80;25.10;;;;;;5078100;28;21029;-79
2023/06/25 02:53:25;;;;;;;14.53;10.60;;;16.90;25.30;;;;;;5065274;28;20583;-80
2023/06/25 02:55:52;;;;;;;13.57;10.87;;;16.70;25.50;;;;;;5063867;28;20465;-80
2023/06/25 02:58:19;;;;;;;17.30;11.10;;;16.70;25.80;;;;;;5051500;28;20539;-80
2023/06/25 03:00:46;;;;;;;16.37;10.17;;;16.70;25.50;;;;;;5077095;28;20541;-81
2023/06/25 03:03:13;;;;;;;14.60;10.47;;;16.70;25.70;;;;;;5081847;28;20458;-79
2023/06/25 03:05:42;;;;;;;16.73;11.30;;;16.70;25.80;;;;;;5076174;28;20465;-80
2023/06/25 03:08:09;;;;;;;14.33;11.23;;;16.70;25.80;;;;;;5063853;28;20845;-79
2023/06/25 03:10:37;;;;;;;15.90;12.20;;;16.70;26.00;;;;;;5067577;28;20485;-80
2023/06/25 03:13:04;;;;;;;18.00;11.70;;;16.60;26.10;;;;;;5069948;28;21031;-81
2023/06/25 03:15:31;;;;;;;13.87;12.13;;;16.60;26.20;;;;;;5068133;28;20564;-81
2023/06/25 03:17:58;;;;;;;15.93;12.47;;;16.60;26.30;;;;;;5067916;28;20467;-81
2023/06/25 03:20:26;;;;;;;16.50;12.30;;;16.60;26.50;;;;;;5058522;28;20836;-80
2023/06/25 03:22:54;;;;;;;14.80;12.20;;;16.60;26.60;;;;;;5062397;28;20456;-80
2023/06/25 03:25:21;;;;;;;16.37;11.53;;;16.60;26.60;;;;;;5059458;28;20453;-81
2023/06/25 03:27:48;;;;;;;16.70;11.50;;;16.50;26.70;;;;;;5065355;28;20551;-81
2023/06/25 03:30:15;;;;;;;15.63;11.47;;;16.60;26.80;;;;;;5065938;28;20477;-80
2023/06/25 03:32:44;;;;;;;15.83;11.57;;;16.50;27.00;;;;;;5066058;28;20462;-82
2023/06/25 03:35:11;;;;;;;14.83;11.40;;;16.50;27.00;;;;;;5061145;28;20492;-80
2023/06/25 03:37:38;;;;;;;15.10;11.57;;;16.50;26.90;;;;;;5046799;28;21011;-81
2023/06/25 03:40:09;;;;;;;14.30;11.07;;;16.50;26.80;;;;;;5058008;28;20481;-80
2023/06/25 03:42:36;;;;;;;15.33;10.53;;;16.50;27.00;;;;;;5061348;28;20465;-81
2023/06/25 03:45:03;;;;;;;14.90;11.40;;;16.50;26.90;;;;;;5070361;28;20463;-79
2023/06/25 03:47:31;;;;;;;14.67;10.87;;;16.50;26.90;;;;;;5062759;28;20533;-81
2023/06/25 03:49:58;;;;;;;15.77;11.07;;;16.50;26.80;;;;;;5056827;28;20543;-81
2023/06/25 03:52:25;;;;;;;17.10;10.93;;;16.50;26.50;;;;;;5057823;28;20462;-80
2023/06/25 03:54:52;;;;;;;15.00;10.47;;;16.50;26.50;;;;;;5062171;28;20858;-80
2023/06/25 03:57:22;;;;;;;14.73;9.70;;;16.50;26.40;;;;;;5061150;28;20483;-81
2023/06/25 03:59:49;;;;;;;14.77;11.47;;;16.50;26.10;;;;;;5068622;28;20473;-78
2023/06/25 04:02:16;;;;;;;20.83;12.20;;;16.60;25.80;;;;;;5060198;28;20477;-80
2023/06/25 04:04:43;;;;;;;15.40;11.50;;;16.60;25.60;;;;;;5063646;28;20472;-81
2023/06/25 04:07:11;;;;;;;16.77;11.77;;;16.70;25.60;;;;;;5060741;28;21181;-81
2023/06/25 04:09:38;;;;;;;16.17;11.73;;;16.60;25.40;;;;;;5065974;28;20541;-81
2023/06/25 04:12:05;;;;;;;15.60;10.70;;;16.70;25.40;;;;;;5060710;28;20461;-79
2023/06/25 04:14:34;;;;;;;16.10;10.53;;;16.70;25.50;;;;;;5060446;28;20486;-81
2023/06/25 04:17:01;;;;;;;13.47;10.13;;;16.70;25.40;;;;;;5059844;28;20469;-80
2023/06/25 04:19:29;;;;;;;13.43;9.67;;;16.70;25.10;;;;;;5058633;28;20485;-80
2023/06/25 04:21:56;;;;;;;13.40;9.67;;;16.80;24.90;;;;;;5064486;28;20459;-78
2023/06/25 04:24:23;;;;;;;14.07;10.30;;;16.80;24.70;;;;;;5059761;28;20464;-80
2023/06/25 04:26:50;;;;;;;12.73;9.87;;;16.90;24.70;;;;;;5064257;28;20461;-80
2023/06/25 04:29:17;;;;;;;12.93;9.80;;;17.00;24.70;;;;;;5059451;28;20552;-80
2023/06/25 04:31:47;;;;;;;10.50;8.37;;;17.00;24.50;;;;;;5060300;28;20528;-78
2023/06/25 04:34:14;;;;;;;12.83;9.63;;;17.20;24.50;;;;;;5056238;28;20482;-79
2023/06/25 04:36:41;;;;;;;12.13;9.47;;;18.00;24.10;;;;;;5066384;28;20472;-79
2023/06/25 04:39:08;;;;;;;13.67;9.60;;;19.90;19.70;;;;;;5062063;28;20481;-79
2023/06/25 04:41:35;;;;;;;13.10;9.60;;;21.50;15.30;;;;;;5056021;28;20533;-79
2023/06/25 04:44:02;;;;;;;12.90;9.13;;;23.00;11.50;;;;;;5062162;28;20472;-80
2023/06/25 04:46:29;;;;;;;14.90;10.17;;;24.10;8.50;;;;;;5060414;28;20458;-79
2023/06/25 04:48:58;;;;;;;13.10;8.50;;;25.20;6.20;;;;;;5055161;28;20489;-78
2023/06/25 04:51:25;;;;;;;16.13;9.50;;;26.10;4.10;;;;;;5040753;28;20470;-78
2023/06/25 04:53:52;;;;;;;11.30;8.77;;;27.00;2.60;;;;;;5063476;28;20506;-81
2023/06/25 04:56:19;;;;;;;10.37;8.33;;;27.80;1.00;;;;;;5059505;28;21162;-82
2023/06/25 04:58:45;;;;;;;13.30;9.00;;;28.10;1.00;;;;;;5054949;28;20477;-79
2023/06/25 05:01:12;;;;;;;13.20;9.27;;;27.50;1.00;;;;;;5040833;28;20473;-82
2023/06/25 05:03:40;;;;;;;11.50;7.70;;;27.70;1.00;;;;;;5053738;28;20457;-79
2023/06/25 05:06:09;;;;;;;10.20;7.57;;;28.80;1.00;;;;;;5060323;28;20838;-81
2023/06/25 05:08:36;;;;;;;11.30;7.80;;;30.00;1.00;;;;;;5059624;28;20468;-82
2023/06/25 05:11:03;;;;;;;11.63;8.00;;;31.00;1.00;;;;;;5064145;28;20464;-81
2023/06/25 05:13:31;;;;;;;11.70;8.60;;;32.00;1.00;;;;;;5063229;28;21197;-80
2023/06/25 05:15:58;;;;;;;11.40;8.10;;;32.80;1.00;;;;;;5060471;28;20457;-82
2023/06/25 05:18:25;;;;;;;9.47;7.50;;;33.50;1.00;;;;;;5065462;28;20458;-79
2023/06/25 05:20:52;;;;;;;9.13;7.13;;;34.30;1.00;;;;;;5062542;28;20484;-80
2023/06/25 05:23:20;;;;;;;11.03;8.03;;;34.90;1.00;;;;;;5061688;28;20458;-78
2023/06/25 05:25:47;;;;;;;10.10;8.17;;;35.50;1.00;;;;;;5061636;28;20466;-80
2023/06/25 05:28:15;;;;;;;11.13;7.60;;;36.00;1.00;;;;;;5063192;28;20479;-80
2023/06/25 05:30:42;;;;;;;10.17;8.13;;;36.60;1.00;;;;;;5059091;28;20482;-80
2023/06/25 05:33:08;;;;;;;10.57;7.57;;;37.20;1.00;;;;;;5059357;28;21035;-80
2023/06/25 05:35:35;;;;;;;11.13;8.70;;;37.80;1.00;;;;;;5064120;28;20493;-80
2023/06/25 05:38:02;;;;;;;10.63;7.77;;;38.50;1.00;;;;;;5064902;28;20926;-80
2023/06/25 05:40:31;;;;;;;8.60;7.70;;;39.00;1.00;;;;;;5063409;28;20852;-78
2023/06/25 05:42:58;;;;;;;9.63;7.00;;;39.50;1.00;;;;;;5054887;28;20458;-79
2023/06/25 05:45:25;;;;;;;8.93;7.17;;;40.10;1.00;;;;;;5056318;28;20616;-81
2023/06/25 05:47:52;;;;;;;11.17;8.10;;;40.60;1.00;;;;;;5058717;28;20465;-79
2023/06/25 05:50:19;;;;;;;11.30;8.40;;;41.00;1.00;;;;;;5065996;28;20507;-80
2023/06/25 05:52:46;;;;;;;9.03;8.10;;;41.50;1.00;;;;;;5065821;28;20465;-80
2023/06/25 05:55:13;;;;;;;9.20;8.30;;;41.90;1.00;;;;;;5060228;28;20500;-78
2023/06/25 05:57:42;;;;;;;9.53;8.53;;;42.50;1.00;;;;;;5068116;28;20495;-79
2023/06/25 06:00:10;;;;;;;8.67;7.77;;;43.00;1.00;;;;;;5066778;28;20583;-80
2023/06/25 06:02:37;;;;;;;9.13;8.00;;;43.50;1.00;;;;;;5069441;28;20481;-79
2023/06/25 06:05:04;;;;;;;10.40;8.60;;;43.90;1.00;;;;;;5066773;28;20476;-77
2023/06/25 06:07:30;;;;;;;8.27;7.37;;;44.30;1.00;;;;;;5067704;28;20466;-79
2023/06/25 06:09:58;;;;;;;8.90;7.57;;;44.80;1.00;;;;;;5060315;28;20486;-79
2023/06/25 06:12:25;;;;;;;8.70;7.60;;;45.30;1.00;;;;;;5064498;28;20510;-78
2023/06/25 06:14:54;;;;;;;8.93;7.80;;;45.70;1.00;;;;;;5067480;28;20476;-79
2023/06/25 06:17:21;;;;;;;10.30;7.90;;;46.00;1.00;;;;;;5066534;28;20465;-80
2023/06/25 06:19:48;;;;;;;20.70;9.67;;;46.20;1.00;;;;;;5059851;28;20481;-80
2023/06/25 06:22:15;;;;;;;8.13;6.80;;;46.50;1.00;;;;;;5067828;28;20467;-82
2023/06/25 06:24:43;;;;;;;11.50;8.00;;;47.10;1.00;;;;;;5066096;28;20454;-81
2023/06/25 06:27:10;;;;;;;8.80;7.90;;;47.60;1.00;;;;;;5060844;28;20461;-80
2023/06/25 06:29:37;;;;;;;10.83;8.70;;;48.00;1.00;;;;;;5064967;28;21065;-81
2023/06/25 06:32:07;;;;;;;9.40;8.43;;;48.40;1.00;;;;;;5066660;28;20465;-80
2023/06/25 06:34:34;;;;;;;10.73;8.30;;;48.90;1.00;;;;;;5069981;28;20950;-81
2023/06/25 06:37:01;;;;;;;8.50;7.70;;;49.30;1.00;;;;;;5064560;28;20469;-82
2023/06/25 06:39:28;;;;;;;9.90;8.90;;;49.40;1.00;;;;;;5067761;28;20495;-80
2023/06/25 06:41:55;;;;;;;9.33;7.97;;;49.50;1.00;;;;;;5068319;28;20481;-80
2023/06/25 06:44:22;;;;;;;8.90;8.00;;;49.90;1.00;;;;;;5067648;28;20702;-80
2023/06/25 06:46:49;;;;;;;8.30;7.40;;;50.30;1.00;;;;;;5065512;28;20461;-81
2023/06/25 06:49:19;;;;;;;8.10;7.40;;;50.50;1.00;;;;;;5069308;28;20520;-80
2023/06/25 06:51:46;;;;;;;9.00;8.20;;;51.00;1.00;;;;;;5063059;28;20748;-81
2023/06/25 06:54:13;;;;;;;8.53;7.17;;;51.30;1.00;;;;;;5065231;28;20469;-79
2023/06/25 06:56:40;;;;;;;9.10;7.07;;;51.40;1.00;;;;;;5064918;28;20488;-81
2023/06/25 06:59:07;;;;;;;9.73;8.50;;;51.60;1.00;;;;;;5065558;28;20488;-80
2023/06/25 07:01:34;;;;;;;9.10;8.00;;;51.60;1.00;;;;;;5061047;28;20473;-81
2023/06/25 07:04:01;;;;;;;9.30;8.40;;;52.10;1.00;;;;;;5061238;28;20465;-81
2023/06/25 07:06:30;;;;;;;9.27;8.37;;;52.20;1.00;;;;;;5059808;28;21027;-82
2023/06/25 07:08:57;;;;;;;8.70;7.90;;;52.20;1.00;;;;;;5058935;28;20556;-80
2023/06/25 07:11:24;;;;;;;8.37;7.50;;;52.30;1.00;;;;;;5063312;28;20564;-80
2023/06/25 07:13:51;;;;;;;9.87;7.83;;;52.80;1.00;;;;;;5060159;28;20469;-81
2023/06/25 07:16:18;;;;;;;8.63;7.73;;;53.20;1.00;;;;;;5067953;28;20484;-80
2023/06/25 07:18:45;;;;;;;8.80;7.53;;;53.30;1.00;;;;;;5061743;28;20503;-80
2023/06/25 07:21:13;;;;;;;8.53;7.63;;;53.70;1.00;;;;;;5066761;28;20473;-81
2023/06/25 07:23:41;;;;;;;7.90;7.20;;;54.10;1.00;;;;;;5063779;28;20469;-81
2023/06/25 07:26:08;;;;;;;8.07;7.37;;;53.70;1.00;;;;;;5063114;28;20481;-82
2023/06/25 07:28:35;;;;;;;8.00;6.87;;;53.70;1.00;;;;;;5061547;28;20488;-81
2023/06/25 07:31:02;;;;;;;8.80;7.60;;;53.80;1.00;;;;;;5062740;28;20836;-81
2023/06/25 07:33:29;;;;;;;9.37;7.83;;;54.20;1.00;;;;;;5066670;28;20462;-81
2023/06/25 07:35:56;;;;;;;8.87;7.97;;;54.80;1.00;;;;;;5064630;28;20484;-81
2023/06/25 07:38:23;;;;;;;8.00;6.93;;;55.00;1.00;;;;;;5062954;28;20464;-81
2023/06/25 07:40:52;;;;;;;9.60;7.60;;;55.20;1.00;;;;;;5063375;28;20452;-81
2023/06/25 07:43:19;;;;;;;10.87;8.20;;;55.70;1.00;;;;;;5069401;28;20476;-81
2023/06/25 07:45:46;;;;;;;8.30;7.43;;;56.10;1.00;;;;;;5062709;28;20553;-80
2023/06/25 07:48:13;;;;;;;8.37;6.80;;;56.50;1.00;;;;;;5066362;28;20472;-81
2023/06/25 07:50:40;;;;;;;7.40;6.70;;;57.00;1.00;;;;;;5059622;28;20745;-80
2023/06/25 07:53:07;;;;;;;7.40;6.70;;;57.30;1.00;;;;;;5060790;28;20605;-81
2023/06/25 07:55:40;;;;;;;7.65;6.78;;;57.20;1.00;;;;;;5059529;28;20293;-80
2023/06/25 07:58:10;;;;;;;6.97;6.28;;;57.10;1.00;;;;;;5071069;28;20198;-80
2023/06/25 08:00:37;;;;;;;6.80;6.15;;;57.30;1.00;;;;;;5063523;28;20231;-80
2023/06/25 08:03:04;;;;;;;8.35;6.82;;;57.50;1.00;;;;;;5060563;28;20665;-81
2023/06/25 08:05:31;;;;;;;8.52;6.50;;;57.80;1.00;;;;;;5085688;23;20231;-68
2023/06/25 08:07:57;;;;;;;10.38;6.80;;;58.40;1.00;;;;;;5057097;28;20203;-68
2023/06/25 08:10:24;;;;;;;6.97;5.75;;;58.60;1.00;;;;;;5060872;28;20202;-67
2023/06/25 08:12:51;;;;;;;6.63;5.85;;;58.90;1.00;;;;;;5050019;28;20699;-68
2023/06/25 08:15:20;;;;;;;6.28;5.10;;;58.90;1.00;;;;;;5037387;28;20238;-68
2023/06/25 08:17:47;;;;;;;6.45;5.85;;;59.30;1.00;;;;;;5040505;28;20211;-68
2023/06/25 08:20:13;;;;;;;6.85;6.15;;;59.60;1.00;;;;;;5043508;28;20203;-69
2023/06/25 08:22:40;;;;;;;6.10;5.18;;;59.70;1.00;;;;;;5044357;28;20230;-69
2023/06/25 08:25:08;;;;;;;6.13;4.97;;;59.40;1.00;;;;;;5035998;28;20203;-68
2023/06/25 08:27:35;;;;;;;7.30;5.97;;;59.10;1.00;;;;;;5035876;28;20731;-69
2023/06/25 08:30:01;;;;;;;6.65;5.95;;;59.10;1.00;;;;;;5042762;28;20214;-69
2023/06/25 08:32:29;;;;;;;8.90;5.88;;;59.30;1.00;;;;;;5040833;28;20232;-69
2023/06/25 08:34:56;;;;;;;5.80;5.20;;;59.20;1.00;;;;;;5038567;28;20226;-69
2023/06/25 08:37:23;;;;;;;6.43;5.07;;;58.80;1.00;;;;;;5043024;28;20350;-68
2023/06/25 08:39:50;;;;;;;6.38;5.78;;;59.00;1.00;;;;;;5044448;28;20785;-68
2023/06/25 08:42:16;;;;;;;5.57;4.90;;;58.90;1.00;;;;;;5036413;28;20219;-69
2023/06/25 08:44:43;;;;;;;5.65;4.72;;;58.70;1.00;;;;;;5035862;28;20226;-68
2023/06/25 08:47:12;;;;;;;6.03;5.05;;;59.00;1.00;;;;;;5042317;28;20746;-69
2023/06/25 08:49:43;;;;;;;6.35;5.75;;;59.20;1.00;;;;;;5037796;28;20195;-69
2023/06/25 08:52:12;;;;;;;8.75;5.53;;;59.60;1.00;;;;;;5041647;28;20583;-68
2023/06/25 08:54:38;;;;;;;6.85;6.15;;;59.90;1.00;;;;;;5040559;28;21057;-69
2023/06/25 08:57:05;;;;;;;6.50;5.20;;;60.10;1.00;;;;;;5044213;28;20668;-69
2023/06/25 08:59:32;;;;;;;6.63;4.95;;;60.10;1.00;;;;;;5043487;28;20203;-69
2023/06/25 09:01:59;;;;;;;6.53;5.10;;;59.50;1.00;;;;;;5043196;28;20231;-69
2023/06/25 09:04:25;;;;;;;7.93;5.07;;;59.10;1.00;;;;;;5045884;28;20217;-70
2023/06/25 09:06:53;;;;;;;7.28;5.72;;;59.50;1.00;;;;;;5043883;28;20206;-69
2023/06/25 09:09:20;;;;;;;6.32;5.10;;;59.30;1.00;;;;;;5048865;28;20198;-68
2023/06/25 09:11:47;;;;;;;7.03;6.32;;;59.10;1.00;;;;;;5047190;28;20204;-69
2023/06/25 09:14:13;;;;;;;5.63;5.03;;;58.00;1.00;;;;;;5046573;28;20210;-69
2023/06/25 09:16:47;;;;;;;5.60;5.00;;;57.00;1.00;;;;;;5046962;28;20222;-68
2023/06/25 09:19:18;;;;;;;5.30;4.80;;;56.80;1.00;;;;;;5045367;28;20696;-68
2023/06/25 09:21:46;;;;;;;6.80;5.30;;;55.80;1.00;;;;;;5046638;28;20694;-69
2023/06/25 09:24:18;;;;;;;6.40;4.97;;;54.10;1.00;;;;;;5048297;28;20871;-68
2023/06/25 09:26:46;;;;;;;6.67;5.17;;;51.60;1.00;;;;;;5048502;28;20472;-68
2023/06/25 09:29:14;;;;;;;6.30;5.23;;;48.80;1.00;;;;;;5045186;28;20458;-68
2023/06/25 09:31:42;;;;;;;6.53;5.40;;;46.40;1.00;;;;;;5038336;28;20463;-68
2023/06/25 09:34:09;;;;;;;6.90;5.60;;;44.60;1.00;;;;;;5050433;28;20501;-68
2023/06/25 09:36:36;;;;;;;7.10;5.10;;;42.80;1.00;;;;;;5051050;28;20478;-68
2023/06/25 09:39:06;;;;;;;7.33;5.43;;;41.00;1.00;;;;;;5045089;28;20484;-67
2023/06/25 09:41:36;;;;;;;7.13;5.13;;;39.80;1.00;;;;;;5050577;28;20470;-70
2023/06/25 09:44:05;;;;;;;10.90;5.63;;;38.40;1.00;;;;;;5044945;28;20449;-69
2023/06/25 09:46:34;;;;;;;6.33;5.00;;;37.20;1.00;;;;;;5044757;28;20827;-68
2023/06/25 09:49:02;;;;;;;7.73;5.47;;;36.30;1.00;;;;;;5047910;28;20796;-68
2023/06/25 09:51:35;;;;;;;7.97;5.83;;;35.70;1.00;;;;;;5045093;28;20467;-68
2023/06/25 09:54:05;;;;;;;7.80;5.90;;;34.70;1.00;;;;;;5044110;28;20470;-68
2023/06/25 09:56:35;;;;;;;7.67;5.53;;;34.10;1.00;;;;;;5047749;28;20481;-68
2023/06/25 09:59:03;;;;;;;6.67;4.87;;;33.40;1.00;;;;;;5046125;28;20458;-68
2023/06/25 10:01:30;;;;;;;7.00;5.10;;;32.90;1.00;;;;;;5063144;28;20490;-67
2023/06/25 10:03:57;;;;;;;7.33;5.07;;;32.40;1.00;;;;;;5072035;28;20474;-67
2023/06/25 10:06:24;;;;;;;7.53;5.53;;;32.00;1.00;;;;;;5054570;28;20831;-68
2023/06/25 10:08:51;;;;;;;8.33;5.70;;;31.70;1.00;;;;;;5048984;28;20478;-68
2023/06/25 10:11:18;;;;;;;7.30;5.17;;;31.50;1.00;;;;;;5047996;28;20841;-68
2023/06/25 10:13:46;;;;;;;7.37;5.43;;;31.30;1.00;;;;;;5049930;28;20920;-67
2023/06/25 10:16:19;;;;;;;7.83;5.53;;;31.10;1.00;;;;;;5049399;28;20481;-68
2023/06/25 10:18:46;;;;;;;7.23;5.53;;;30.70;1.00;;;;;;5044280;28;20493;-68
2023/06/25 10:21:19;;;;;;;8.50;5.43;;;30.40;1.00;;;;;;5046052;28;21251;-67
2023/06/25 10:23:55;;;;;;;11.93;5.90;;;30.20;1.00;;;;;;5046680;28;20481;-67
2023/06/25 10:26:27;;;;;;;7.63;5.53;;;29.90;1.00;;;;;;5047829;28;20469;-67
2023/06/25 10:28:55;;;;;;;9.33;6.00;;;29.70;1.00;;;;;;5043988;28;20505;-67
2023/06/25 10:31:22;;;;;;;8.87;5.90;;;29.50;1.00;;;;;;5046754;28;20979;-68
2023/06/25 10:33:49;;;;;;;8.43;6.17;;;29.40;1.00;;;;;;5048655;28;20485;-68
2023/06/25 10:36:16;;;;;;;8.73;6.03;;;29.20;1.00;;;;;;5048673;28;20497;-68
2023/06/25 10:38:43;;;;;;;8.43;6.50;;;29.20;1.00;;;;;;5044602;28;20804;-68
2023/06/25 10:41:09;;;;;;;8.20;5.80;;;29.20;1.00;;;;;;5049884;28;20470;-68
2023/06/25 10:43:38;;;;;;;8.27;6.43;;;29.20;1.00;;;;;;5048243;28;20489;-67
2023/06/25 10:46:06;;;;;;;7.87;5.80;;;29.20;1.00;;;;;;5048461;28;20878;-67
2023/06/25 10:48:34;;;;;;;8.20;6.23;;;29.30;1.00;;;;;;5046767;28;20466;-68
2023/06/25 10:51:01;;;;;;;7.90;5.57;;;29.10;1.00;;;;;;5040329;28;21033;-68
2023/06/25 10:53:28;;;;;;;9.87;6.33;;;29.00;1.00;;;;;;5050204;28;20482;-67
2023/06/25 10:55:55;;;;;;;8.53;5.63;;;29.10;1.00;;;;;;5049638;28;20543;-67
2023/06/25 10:58:24;;;;;;;7.70;5.53;;;29.10;1.00;;;;;;5049679;28;20489;-68
2023/06/25 11:00:55;;;;;;;7.63;5.77;;;29.00;1.00;;;;;;5051441;28;20466;-67
2023/06/25 11:03:23;;;;;;;9.00;6.30;;;28.70;1.00;;;;;;5054546;28;20510;-67
2023/06/25 11:05:50;;;;;;;8.97;6.20;;;28.60;1.00;;;;;;5047600;28;20809;-67
2023/06/25 11:08:17;;;;;;;9.73;6.40;;;28.50;1.00;;;;;;5044783;28;20473;-67
2023/06/25 11:10:44;;;;;;;8.70;6.10;;;28.40;1.00;;;;;;5041693;28;20541;-68
2023/06/25 11:13:12;;;;;;;8.40;5.97;;;28.60;1.00;;;;;;5045932;28;20481;-69
2023/06/25 11:15:40;;;;;;;8.80;6.10;;;28.50;1.00;;;;;;5039918;28;20484;-67
2023/06/25 11:18:08;;;;;;;8.60;6.00;;;28.50;1.00;;;;;;5044457;28;20516;-67
2023/06/25 11:20:39;;;;;;;9.77;5.80;;;28.50;1.00;;;;;;5044409;28;20470;-66
2023/06/25 11:23:06;;;;;;;9.53;6.20;;;28.50;1.00;;;;;;5042077;28;20500;-67
2023/06/25 11:25:32;;;;;;;8.53;6.43;;;28.50;1.00;;;;;;5042064;28;20804;-68
2023/06/25 11:28:04;;;;;;;9.40;6.63;;;28.40;1.00;;;;;;5044337;28;20473;-67
2023/06/25 11:30:31;;;;;;;9.87;6.63;;;28.40;1.00;;;;;;5048036;28;20461;-68
2023/06/25 11:33:08;;;;;;;8.13;5.90;;;28.40;1.00;;;;;;5044352;28;21072;-68
2023/06/25 11:35:36;;;;;;;9.57;7.10;;;28.30;1.00;;;;;;5042285;28;20477;-67
2023/06/25 11:38:03;;;;;;;9.03;6.07;;;28.40;1.00;;;;;;5044338;28;20564;-66
2023/06/25 11:40:31;;;;;;;9.60;7.20;;;28.40;1.00;;;;;;5043296;28;20478;-67
2023/06/25 11:42:58;;;;;;;32.63;7.50;;;28.40;1.00;;;;;;5043686;28;20486;-68
2023/06/25 11:45:25;;;;;;;10.43;6.20;;;28.40;1.00;;;;;;5043708;28;20982;-68
2023/06/25 11:47:54;;;;;;;8.80;6.27;;;28.40;1.00;;;;;;5044057;28;20454;-68
2023/06/25 11:50:23;;;;;;;9.47;6.97;;;28.30;1.00;;;;;;5036447;28;20544;-68
2023/06/25 11:52:53;;;;;;;8.90;6.23;;;28.30;1.00;;;;;;5047191;28;20493;-68
2023/06/25 11:55:21;;;;;;;8.90;6.33;;;28.30;1.00;;;;;;5043319;28;21389;-69
2023/06/25 11:57:48;;;;;;;9.27;7.00;;;28.20;1.00;;;;;;5046292;28;21045;-67
2023/06/25 12:00:15;;;;;;;10.97;7.90;;;28.20;1.00;;;;;;5041595;28;20466;-67
2023/06/25 12:02:42;;;;;;;9.57;7.53;;;28.20;1.00;;;;;;5046053;28;20486;-68
2023/06/25 12:05:09;;;;;;;9.23;7.40;;;28.30;1.00;;;;;;5039190;28;20480;-68
2023/06/25 12:07:36;;;;;;;10.37;6.70;;;28.30;1.00;;;;;;5041185;28;20500;-68
2023/06/25 12:10:05;;;;;;;9.57;7.53;;;28.40;1.00;;;;;;5040886;28;20481;-68
2023/06/25 12:12:32;;;;;;;10.27;8.07;;;28.40;1.00;;;;;;5040844;28;20485;-68
2023/06/25 12:14:59;;;;;;;9.07;6.90;;;28.40;1.00;;;;;;5045276;28;20471;-68
2023/06/25 12:17:25;;;;;;;9.80;7.70;;;28.40;1.00;;;;;;5045445;28;20482;-69
2023/06/25 12:19:52;;;;;;;9.80;7.53;;;28.40;1.00;;;;;;5049224;28;20462;-68
2023/06/25 12:22:19;;;;;;;8.87;6.60;;;28.30;1.00;;;;;;5039818;28;20485;-68
2023/06/25 12:24:45;;;;;;;9.07;6.50;;;28.20;1.00;;;;;;5045633;28;20481;-69
2023/06/25 12:27:14;;;;;;;9.00;6.60;;;28.20;1.00;;;;;;5042053;28;20466;-68
2023/06/25 12:29:40;;;;;;;9.63;7.23;;;28.20;1.00;;;;;;5043566;28;20466;-68
2023/06/25 12:32:07;;;;;;;8.87;6.80;;;28.10;1.00;;;;;;5041601;28;20470;-68
2023/06/25 12:34:36;;;;;;;10.50;7.70;;;28.20;1.00;;;;;;5043814;28;20477;-68
2023/06/25 12:37:03;;;;;;;13.03;6.80;;;28.20;1.00;;;;;;5038631;28;21054;-68
2023/06/25 12:39:29;;;;;;;8.40;6.20;;;28.20;1.00;;;;;;5044538;28;20467;-68
2023/06/25 12:41:56;;;;;;;8.80;6.80;;;28.20;1.00;;;;;;5041982;28;20485;-69
2023/06/25 12:44:24;;;;;;;7.90;6.43;;;28.20;1.00;;;;;;5040744;28;20478;-69
2023/06/25 12:46:51;;;;;;;10.00;6.80;;;28.20;1.00;;;;;;5043290;28;20466;-67